Time;durP1;ratioP1;P1;durP2;ratioP2;P2;SDS_P1;SDS_P2;PMS_P1;PMS_P2;Temp;Humidity;BMP_temperature;BMP_pressure;BME280_temperature;BME280_humidity;BME280_pressure;Samples;Min_cycle;Max_cycle;Signal;HPM_P1;HPM_P2
2023/12/07 00:00:30;;;;;;;144.73;58.63;;;;;;;-0.53;100.00;101611.94;5011479;28;20217;-43
2023/12/07 00:02:56;;;;;;;127.93;55.05;;;;;;;-0.45;100.00;101622.63;5007424;28;20246;-43
2023/12/07 00:05:21;;;;;;;132.88;57.42;;;;;;;-0.42;100.00;101615.69;5019433;28;20188;-42
2023/12/07 00:07:47;;;;;;;135.77;57.47;;;;;;;-0.40;100.00;101620.97;5008519;28;20224;-43
2023/12/07 00:10:12;;;;;;;131.73;55.90;;;;;;;-0.37;100.00;101625.41;5012880;28;20192;-42
2023/12/07 00:12:38;;;;;;;155.07;59.38;;;;;;;-0.46;100.00;101619.13;5009958;28;20176;-44
2023/12/07 00:15:04;;;;;;;149.60;60.13;;;;;;;-0.49;100.00;101637.47;5006949;28;20255;-43
2023/12/07 00:17:30;;;;;;;147.43;56.58;;;;;;;-0.38;100.00;101636.81;5012670;28;20199;-44
2023/12/07 00:19:55;;;;;;;147.38;58.05;;;;;;;-0.34;100.00;101636.91;5019572;28;20209;-43
2023/12/07 00:22:21;;;;;;;154.00;59.00;;;;;;;-0.34;100.00;101646.53;5006148;28;20242;-41
2023/12/07 00:24:46;;;;;;;140.27;58.95;;;;;;;-0.32;100.00;101634.31;5020572;28;20767;-43
2023/12/07 00:27:12;;;;;;;163.60;58.15;;;;;;;-0.31;100.00;101647.47;5011963;28;20254;-43
2023/12/07 00:29:38;;;;;;;157.35;56.05;;;;;;;-0.30;100.00;101643.13;5007786;28;20649;-43
2023/12/07 00:32:04;;;;;;;175.40;60.33;;;;;;;-0.28;100.00;101654.56;5004764;28;20591;-43
2023/12/07 00:34:30;;;;;;;190.77;64.47;;;;;;;-0.30;100.00;101653.66;5015713;28;20278;-42
2023/12/07 00:36:55;;;;;;;191.73;64.60;;;;;;;-0.31;100.00;101649.22;5014634;28;20188;-43
2023/12/07 00:39:21;;;;;;;201.45;63.88;;;;;;;-0.26;100.00;101644.97;5016065;28;20621;-43
2023/12/07 00:41:47;;;;;;;177.10;61.70;;;;;;;-0.25;100.00;101641.44;5006256;28;20216;-43
2023/12/07 00:44:16;;;;;;;189.75;64.20;;;;;;;-0.28;100.00;101651.94;5011478;28;20188;-41
2023/12/07 00:46:42;;;;;;;203.50;63.00;;;;;;;-0.27;100.00;101645.78;5014324;28;20646;-43
2023/12/07 00:49:07;;;;;;;202.43;65.15;;;;;;;-0.28;100.00;101659.84;5008177;28;20276;-42
2023/12/07 00:51:32;;;;;;;231.27;65.65;;;;;;;-0.27;100.00;101661.59;5008935;28;20248;-41
2023/12/07 00:53:58;;;;;;;192.55;59.40;;;;;;;-0.28;100.00;101660.72;5009696;28;20546;-43
2023/12/07 00:56:24;;;;;;;201.63;60.40;;;;;;;-0.27;100.00;101658.97;5011250;28;20181;-43
2023/12/07 00:58:50;;;;;;;189.48;59.47;;;;;;;-0.26;100.00;101664.28;5014655;28;20665;-43
2023/12/07 01:01:15;;;;;;;212.07;61.83;;;;;;;-0.22;100.00;101674.00;4991072;28;20263;-43
2023/12/07 01:03:41;;;;;;;213.23;61.20;;;;;;;-0.26;100.00;101666.03;5006898;28;20556;-43
2023/12/07 01:06:07;;;;;;;208.57;61.13;;;;;;;-0.21;100.00;101661.72;5016219;28;20239;-43
2023/12/07 01:08:33;;;;;;;235.63;62.78;;;;;;;-0.27;100.00;101678.28;5012419;28;20180;-43
2023/12/07 01:10:58;;;;;;;200.07;60.78;;;;;;;-0.23;100.00;101676.59;5011557;28;20210;-43
2023/12/07 01:13:24;;;;;;;217.88;58.22;;;;;;;-0.33;100.00;101675.56;5006012;28;20650;-43
2023/12/07 01:15:50;;;;;;;207.98;57.20;;;;;;;-0.32;100.00;101679.94;5013490;28;20184;-43
2023/12/07 01:18:16;;;;;;;207.30;56.75;;;;;;;-0.27;100.00;101683.53;5015910;28;20204;-43
2023/12/07 01:20:42;;;;;;;199.10;56.90;;;;;;;-0.33;100.00;101682.53;5012058;28;20266;-42
2023/12/07 01:23:10;;;;;;;215.80;58.40;;;;;;;-0.29;100.00;101680.00;5008778;28;20180;-42
2023/12/07 01:25:36;;;;;;;167.88;50.55;;;;;;;-0.28;100.00;101660.72;5014594;28;20247;-43
2023/12/07 01:28:01;;;;;;;175.43;53.55;;;;;;;-0.25;100.00;101666.03;5008072;28;20322;-41
2023/12/07 01:30:27;;;;;;;204.93;54.75;;;;;;;-0.28;100.00;101678.28;5011828;28;20300;-43
2023/12/07 01:32:52;;;;;;;176.77;52.97;;;;;;;-0.24;100.00;101682.72;5014354;28;20272;-43
2023/12/07 01:35:18;;;;;;;222.25;56.63;;;;;;;-0.32;100.00;101693.09;5010806;28;20575;-43
2023/12/07 01:37:43;;;;;;;174.05;52.20;;;;;;;-0.30;100.00;101687.88;5017321;28;20196;-43
2023/12/07 01:40:10;;;;;;;171.27;51.67;;;;;;;-0.31;100.00;101689.59;5011201;28;20609;-43
2023/12/07 01:42:37;;;;;;;155.57;50.15;;;;;;;-0.28;100.00;101697.59;5005778;28;20647;-43
2023/12/07 01:45:06;;;;;;;196.82;55.60;;;;;;;-0.30;100.00;101701.06;5012758;28;20190;-42
2023/12/07 01:47:35;;;;;;;147.70;48.80;;;;;;;-0.28;100.00;101691.44;5011102;28;20611;-43
2023/12/07 01:50:04;;;;;;;159.80;52.50;;;;;;;-0.28;100.00;101707.25;5015399;28;20700;-43
2023/12/07 01:52:30;;;;;;;196.32;55.42;;;;;;;-0.28;100.00;101704.59;5012467;28;20188;-43
2023/12/07 01:54:57;;;;;;;204.07;55.97;;;;;;;-0.31;100.00;101705.41;4999389;28;20180;-43
2023/12/07 01:57:22;;;;;;;260.83;56.55;;;;;;;-0.34;100.00;101700.09;5018454;28;20216;-43
2023/12/07 01:59:49;;;;;;;192.57;53.05;;;;;;;-0.29;100.00;101711.59;5015096;28;20717;-44
2023/12/07 02:02:15;;;;;;;210.75;50.78;;;;;;;-0.29;100.00;101702.81;5008024;28;20184;-42
2023/12/07 02:04:41;;;;;;;211.18;54.72;;;;;;;-0.33;100.00;101699.25;5009833;28;20493;-42
2023/12/07 02:07:07;;;;;;;270.05;57.58;;;;;;;-0.32;100.00;101708.03;5018332;28;20306;-42
2023/12/07 02:09:33;;;;;;;245.90;53.35;;;;;;;-0.35;100.00;101713.22;5019868;28;20179;-42
2023/12/07 02:12:00;;;;;;;246.23;55.38;;;;;;;-0.36;100.00;101719.34;5020509;28;20188;-42
2023/12/07 02:14:25;;;;;;;336.65;55.38;;;;;;;-0.31;100.00;101717.69;5005569;28;20197;-42
2023/12/07 02:17:00;;;;;;;366.63;56.00;;;;;;;-0.33;100.00;101714.13;5006357;28;20212;-41
2023/12/07 02:19:52;;;;;;;206.45;54.22;;;;;;;-0.28;100.00;101720.41;4995997;28;20215;-42
2023/12/07 02:22:40;;;;;;;238.98;52.92;;;;;;;-0.31;100.00;101726.47;5002953;28;20638;-42
2023/12/07 02:25:10;;;;;;;192.10;50.75;;;;;;;-0.30;100.00;101728.25;4999404;28;20204;-43
2023/12/07 02:27:37;;;;;;;213.13;52.30;;;;;;;-0.29;100.00;101726.50;5009569;28;20186;-42
2023/12/07 02:30:04;;;;;;;435.95;57.40;;;;;;;-0.31;100.00;101725.59;4999215;28;20360;-41
2023/12/07 02:32:30;;;;;;;378.42;55.63;;;;;;;-0.33;100.00;101725.56;5004038;28;20432;-43
2023/12/07 02:34:55;;;;;;;291.63;54.22;;;;;;;-0.34;100.00;101739.56;4989932;28;20568;-42
2023/12/07 02:37:24;;;;;;;247.73;54.15;;;;;;;-0.26;100.00;101742.38;5005586;28;20185;-42
2023/12/07 02:39:52;;;;;;;444.67;58.30;;;;;;;-0.30;100.00;101736.16;5011001;28;20208;-41
2023/12/07 02:42:19;;;;;;;229.88;52.15;;;;;;;-0.29;100.00;101750.22;5006469;28;20710;-41
2023/12/07 02:44:45;;;;;;;353.60;57.00;;;;;;;-0.34;100.00;101743.97;5011850;28;20184;-42
2023/12/07 02:47:11;;;;;;;290.90;54.80;;;;;;;-0.31;100.00;101754.53;5009690;28;20703;-42
2023/12/07 02:49:36;;;;;;;219.40;52.33;;;;;;;-0.28;100.00;101747.63;5007709;28;20190;-42
2023/12/07 02:52:02;;;;;;;276.45;54.33;;;;;;;-0.28;100.00;101737.09;4982374;28;20221;-41
2023/12/07 02:54:27;;;;;;;160.75;50.08;;;;;;;-0.30;100.00;101741.44;5004654;28;20189;-42
2023/12/07 02:56:53;;;;;;;189.60;50.53;;;;;;;-0.29;100.00;101750.22;5010766;28;20686;-41
2023/12/07 02:59:18;;;;;;;184.73;50.95;;;;;;;-0.26;100.00;101745.03;5015222;28;20205;-42
2023/12/07 03:01:44;;;;;;;214.23;54.85;;;;;;;-0.22;100.00;101752.09;5000780;28;20209;-42
2023/12/07 03:04:09;;;;;;;250.60;57.55;;;;;;;-0.24;100.00;101745.91;5009567;28;20204;-42
2023/12/07 03:06:34;;;;;;;313.10;59.35;;;;;;;-0.31;100.00;101744.91;5011438;28;20188;-43
2023/12/07 03:09:00;;;;;;;225.75;55.33;;;;;;;-0.31;100.00;101744.00;5003088;28;20268;-42
2023/12/07 03:11:25;;;;;;;181.15;53.08;;;;;;;-0.28;100.00;101749.38;5010828;28;20274;-42
2023/12/07 03:13:51;;;;;;;158.20;51.70;;;;;;;-0.25;100.00;101752.06;5002277;28;20193;-42
2023/12/07 03:16:16;;;;;;;218.88;58.58;;;;;;;-0.30;100.00;101757.22;4989366;28;20201;-43
2023/12/07 03:18:42;;;;;;;234.35;57.05;;;;;;;-0.31;100.00;101752.78;5014021;28;20282;-41
2023/12/07 03:21:07;;;;;;;191.82;54.83;;;;;;;-0.32;100.00;101760.69;4993317;28;20325;-41
2023/12/07 03:23:33;;;;;;;233.95;57.60;;;;;;;-0.30;100.00;101753.72;5005803;28;20250;-42
2023/12/07 03:25:58;;;;;;;208.25;55.65;;;;;;;-0.25;100.00;101757.31;5010330;28;20192;-42
2023/12/07 03:28:24;;;;;;;225.05;55.03;;;;;;;-0.26;100.00;101759.06;5007180;28;20749;-42
2023/12/07 03:30:49;;;;;;;181.15;49.92;;;;;;;-0.25;100.00;101758.19;5007118;28;20219;-41
2023/12/07 03:33:15;;;;;;;217.13;54.88;;;;;;;-0.27;100.00;101767.81;5007176;28;20603;-42
2023/12/07 03:35:40;;;;;;;190.98;52.58;;;;;;;-0.26;100.00;101769.59;5008690;28;20224;-42
2023/12/07 03:38:06;;;;;;;231.20;57.80;;;;;;;-0.26;100.00;101763.47;5010814;28;20188;-42
2023/12/07 03:40:32;;;;;;;252.95;62.10;;;;;;;-0.29;100.00;101764.25;5008198;28;20208;-41
2023/12/07 03:42:57;;;;;;;231.00;60.58;;;;;;;-0.33;100.00;101759.81;5012478;28;20346;-40
2023/12/07 03:45:23;;;;;;;222.88;58.38;;;;;;;-0.28;100.00;101767.81;5009887;28;20180;-41
2023/12/07 03:47:49;;;;;;;256.13;60.25;;;;;;;-0.36;100.00;101770.25;5001183;28;20591;-41
2023/12/07 03:50:15;;;;;;;222.32;58.30;;;;;;;-0.35;100.00;101761.50;5013049;28;20212;-41
2023/12/07 03:52:40;;;;;;;215.43;59.10;;;;;;;-0.28;100.00;101763.41;5009212;28;20188;-41
2023/12/07 03:55:06;;;;;;;192.93;55.90;;;;;;;-0.27;100.00;101769.56;5004894;28;20656;-41
2023/12/07 03:57:32;;;;;;;213.75;61.15;;;;;;;-0.34;100.00;101765.03;5007632;28;20705;-41
2023/12/07 03:59:57;;;;;;;204.35;58.30;;;;;;;-0.37;100.00;101770.22;5005972;28;20216;-40
2023/12/07 04:02:23;;;;;;;200.60;60.15;;;;;;;-0.35;100.00;101763.22;5012670;28;20207;-40
2023/12/07 04:04:48;;;;;;;214.32;62.17;;;;;;;-0.32;100.00;101779.13;5018301;28;20243;-41
2023/12/07 04:07:14;;;;;;;202.00;58.85;;;;;;;-0.33;100.00;101783.50;5005016;28;20187;-40
2023/12/07 04:09:39;;;;;;;222.25;62.30;;;;;;;-0.33;100.00;101786.13;5012350;28;20328;-40
2023/12/07 04:12:05;;;;;;;227.85;61.90;;;;;;;-0.36;100.00;101785.16;5013217;28;20177;-40
2023/12/07 04:14:31;;;;;;;223.45;61.03;;;;;;;-0.35;100.00;101782.56;5012134;28;20185;-40
2023/12/07 04:16:56;;;;;;;228.30;60.22;;;;;;;-0.38;100.00;101794.78;5011212;28;20181;-41
2023/12/07 04:19:22;;;;;;;169.13;54.17;;;;;;;-0.29;100.00;101792.34;5009288;28;20221;-41
2023/12/07 04:21:47;;;;;;;207.30;60.10;;;;;;;-0.23;100.00;101798.63;5013374;28;20217;-39
2023/12/07 04:24:13;;;;;;;213.60;60.25;;;;;;;-0.29;100.00;101798.47;5015906;28;20275;-40
2023/12/07 04:26:38;;;;;;;165.88;52.33;;;;;;;-0.25;100.00;101797.69;5004500;28;20251;-41
2023/12/07 04:29:04;;;;;;;207.10;60.80;;;;;;;-0.23;100.00;101808.28;4993192;28;20259;-41
2023/12/07 04:31:29;;;;;;;213.63;63.30;;;;;;;-0.29;100.00;101805.50;5020958;28;20520;-41
2023/12/07 04:33:55;;;;;;;207.05;62.75;;;;;;;-0.31;100.00;101808.09;5011527;28;20267;-40
2023/12/07 04:36:20;;;;;;;223.15;63.33;;;;;;;-0.30;100.00;101801.09;4996204;28;20192;-40
2023/12/07 04:38:46;;;;;;;218.13;62.13;;;;;;;-0.27;100.00;101803.78;5006741;28;20213;-42
2023/12/07 04:41:11;;;;;;;232.23;63.17;;;;;;;-0.28;100.00;101800.28;5011272;28;20236;-40
2023/12/07 04:43:36;;;;;;;190.35;60.85;;;;;;;-0.25;100.00;101796.81;5017139;28;20199;-41
2023/12/07 04:46:03;;;;;;;208.02;63.38;;;;;;;-0.22;100.00;101797.78;5010870;28;20622;-40
2023/12/07 04:48:29;;;;;;;215.63;64.00;;;;;;;-0.20;100.00;101800.44;5005443;28;20192;-39
2023/12/07 04:50:54;;;;;;;195.05;59.35;;;;;;;-0.24;100.00;101788.03;5015313;28;20573;-41
2023/12/07 04:53:19;;;;;;;183.02;60.00;;;;;;;-0.19;100.00;101793.44;5012089;28;20185;-40
2023/12/07 04:55:49;;;;;;;180.18;59.83;;;;;;;-0.18;100.00;101809.25;5014373;28;20185;-39
2023/12/07 04:58:15;;;;;;;194.27;62.45;;;;;;;-0.16;100.00;101791.75;5010603;28;20199;-41
2023/12/07 05:00:41;;;;;;;199.45;61.55;;;;;;;-0.19;100.00;101804.84;5019315;28;20215;-41
2023/12/07 05:03:06;;;;;;;175.52;59.22;;;;;;;-0.26;100.00;101800.31;5015147;28;20200;-42
2023/12/07 05:05:32;;;;;;;167.68;56.25;;;;;;;-0.24;100.00;101796.88;5024381;22;20611;-41
2023/12/07 05:07:57;;;;;;;190.55;60.58;;;;;;;-0.30;100.00;101790.56;5025976;28;20184;-40
2023/12/07 05:10:23;;;;;;;178.35;58.72;;;;;;;-0.29;100.00;101797.59;5028796;28;20747;-41
2023/12/07 05:12:48;;;;;;;184.27;57.65;;;;;;;-0.28;100.00;101799.41;5031238;28;20190;-44
2023/12/07 05:15:14;;;;;;;171.35;56.90;;;;;;;-0.25;100.00;101802.97;5031604;28;20688;-40
2023/12/07 05:17:39;;;;;;;186.73;58.67;;;;;;;-0.24;100.00;101801.22;5031745;28;20570;-41
2023/12/07 05:20:07;;;;;;;197.38;57.80;;;;;;;-0.35;100.00;101808.00;5027530;28;20231;-40
2023/12/07 05:22:32;;;;;;;185.40;60.25;;;;;;;-0.44;100.00;101804.31;5029173;28;20647;-43
2023/12/07 05:24:58;;;;;;;162.10;55.65;;;;;;;-0.36;100.00;101812.38;5031174;28;20218;-40
2023/12/07 05:27:23;;;;;;;203.68;60.65;;;;;;;-0.42;100.00;101801.69;5031579;28;20653;-44
2023/12/07 05:29:49;;;;;;;172.07;57.47;;;;;;;-0.44;100.00;101808.69;5005139;28;20180;-42
2023/12/07 05:32:14;;;;;;;152.55;51.85;;;;;;;-0.37;100.00;101807.97;5031037;28;20259;-40
2023/12/07 05:34:41;;;;;;;145.80;50.75;;;;;;;-0.29;100.00;101813.41;5031454;28;20200;-42
2023/12/07 05:37:06;;;;;;;135.88;50.00;;;;;;;-0.30;100.00;101811.63;5027438;28;20200;-43
2023/12/07 05:39:32;;;;;;;160.60;55.47;;;;;;;-0.31;100.00;101817.75;5030614;28;20200;-43
2023/12/07 05:41:57;;;;;;;173.55;59.55;;;;;;;-0.34;100.00;101815.94;5030664;28;20731;-43
2023/12/07 05:44:23;;;;;;;159.80;55.28;;;;;;;-0.32;100.00;101823.88;5029097;28;20184;-43
2023/12/07 05:46:49;;;;;;;162.48;53.15;;;;;;;-0.30;100.00;101822.16;5028943;28;20180;-44
2023/12/07 05:49:15;;;;;;;195.73;58.78;;;;;;;-0.39;100.00;101827.19;5022598;28;20189;-42
2023/12/07 05:51:40;;;;;;;172.27;56.53;;;;;;;-0.42;100.00;101820.13;5026798;28;20212;-45
2023/12/07 05:54:06;;;;;;;162.93;52.83;;;;;;;-0.36;100.00;101822.91;5025538;28;20192;-39
2023/12/07 05:56:31;;;;;;;167.60;55.22;;;;;;;-0.31;100.00;101836.16;5024427;28;20195;-43
2023/12/07 05:58:57;;;;;;;211.38;62.08;;;;;;;-0.36;100.00;101827.28;5026671;28;20673;-43
2023/12/07 06:01:24;;;;;;;197.48;61.78;;;;;;;-0.37;100.00;101836.03;5026788;28;20588;-38
2023/12/07 06:03:50;;;;;;;213.82;62.00;;;;;;;-0.32;100.00;101834.41;5013493;28;20279;-40
2023/12/07 06:06:15;;;;;;;199.27;60.47;;;;;;;-0.31;100.00;101837.06;5027103;28;20267;-40
2023/12/07 06:08:41;;;;;;;203.73;62.88;;;;;;;-0.31;100.00;101820.38;5025198;28;20184;-37
2023/12/07 06:11:07;;;;;;;202.98;61.60;;;;;;;-0.29;100.00;101834.47;5028105;28;20628;-44
2023/12/07 06:13:33;;;;;;;214.68;61.10;;;;;;;-0.31;100.00;101823.88;5030015;28;20238;-41
2023/12/07 06:15:59;;;;;;;188.38;59.60;;;;;;;-0.27;100.00;101838.03;5009218;28;20283;-40
2023/12/07 06:18:25;;;;;;;212.27;60.58;;;;;;;-0.35;100.00;101835.25;5027890;28;20279;-40
2023/12/07 06:20:50;;;;;;;216.05;61.00;;;;;;;-0.37;100.00;101841.28;5023852;28;20706;-38
2023/12/07 06:23:16;;;;;;;194.10;56.53;;;;;;;-0.29;100.00;101837.09;5023916;28;20714;-44
2023/12/07 06:25:41;;;;;;;173.73;56.15;;;;;;;-0.27;100.00;101851.19;5028844;28;20242;-41
2023/12/07 06:28:07;;;;;;;215.32;61.63;;;;;;;-0.27;100.00;101843.28;5024202;28;20183;-42
2023/12/07 06:30:34;;;;;;;217.50;60.45;;;;;;;-0.28;100.00;101839.78;5029316;28;21057;-41
2023/12/07 06:32:59;;;;;;;209.23;60.90;;;;;;;-0.32;100.00;101843.19;5028920;28;20657;-44
2023/12/07 06:35:25;;;;;;;184.55;55.90;;;;;;;-0.28;100.00;101844.16;5030081;28;20194;-39
2023/12/07 06:37:50;;;;;;;250.77;64.15;;;;;;;-0.36;100.00;101838.72;5028025;28;20258;-41
2023/12/07 06:40:16;;;;;;;241.65;74.03;;;;;;;-0.33;100.00;101844.06;5023528;28;20586;-43
2023/12/07 06:42:41;;;;;;;290.90;77.88;;;;;;;-0.38;100.00;101845.69;5025006;28;20640;-42
2023/12/07 06:45:10;;;;;;;220.43;73.00;;;;;;;-0.35;100.00;101839.59;5028596;28;20275;-43
2023/12/07 06:47:39;;;;;;;208.93;70.57;;;;;;;-0.27;100.00;101848.56;5029633;28;20180;-43
2023/12/07 06:50:08;;;;;;;285.70;79.03;;;;;;;-0.32;100.00;101852.84;5028176;28;20224;-43
2023/12/07 06:52:34;;;;;;;301.58;80.68;;;;;;;-0.36;100.00;101845.72;5011790;28;20681;-43
2023/12/07 06:54:59;;;;;;;308.83;81.57;;;;;;;-0.33;100.00;101851.97;5032372;28;20180;-44
2023/12/07 06:57:25;;;;;;;249.88;75.30;;;;;;;-0.32;100.00;101851.09;5023575;28;20607;-43
2023/12/07 06:59:50;;;;;;;240.20;73.45;;;;;;;-0.31;100.00;101851.97;5029397;28;20207;-42
2023/12/07 07:02:16;;;;;;;349.23;80.65;;;;;;;-0.27;100.00;101864.34;5021047;28;20238;-44
2023/12/07 07:04:41;;;;;;;281.60;77.93;;;;;;;-0.27;100.00;101856.47;5026037;28;20184;-42
2023/12/07 07:07:07;;;;;;;286.35;79.32;;;;;;;-0.24;100.00;101854.78;5014315;28;20606;-40
2023/12/07 07:09:32;;;;;;;260.40;79.90;;;;;;;-0.18;100.00;101858.41;5026039;28;20227;-43
2023/12/07 07:11:58;;;;;;;279.90;79.03;;;;;;;-0.18;100.00;101863.69;5026414;28;20208;-44
2023/12/07 07:14:23;;;;;;;266.77;76.78;;;;;;;-0.18;100.00;101874.22;5028408;28;20241;-41
2023/12/07 07:16:49;;;;;;;262.88;78.65;;;;;;;-0.15;100.00;101867.28;5025524;28;20253;-41
2023/12/07 07:19:16;;;;;;;253.77;75.25;;;;;;;-0.21;100.00;101869.78;5028733;28;20208;-42
2023/12/07 07:21:42;;;;;;;317.60;77.75;;;;;;;-0.21;100.00;101864.50;5028846;28;20798;-41
2023/12/07 07:24:07;;;;;;;208.23;69.30;;;;;;;-0.15;100.00;101869.00;5029405;28;20303;-44
2023/12/07 07:26:33;;;;;;;253.55;73.60;;;;;;;-0.11;100.00;101865.59;5027142;28;20180;-40
2023/12/07 07:28:59;;;;;;;434.63;80.30;;;;;;;-0.17;100.00;101862.84;5023568;28;20180;-42
2023/12/07 07:31:24;;;;;;;220.20;71.40;;;;;;;-0.14;100.00;101871.69;5025151;28;20246;-38
2023/12/07 07:33:50;;;;;;;226.50;68.32;;;;;;;-0.15;100.00;101880.44;5016697;28;20265;-38
2023/12/07 07:36:15;;;;;;;291.10;75.38;;;;;;;-0.16;100.00;101876.03;5030082;28;20179;-38
2023/12/07 07:38:42;;;;;;;261.35;71.88;;;;;;;-0.13;100.00;101884.00;5026490;28;20534;-44
2023/12/07 07:41:08;;;;;;;231.70;69.93;;;;;;;-0.10;100.00;101872.66;5028442;28;20214;-41
2023/12/07 07:43:36;;;;;;;203.98;65.10;;;;;;;-0.12;100.00;101883.13;5031292;28;20188;-42
2023/12/07 07:46:03;;;;;;;212.32;68.03;;;;;;;-0.10;100.00;101865.63;5027617;28;20180;-42
2023/12/07 07:48:29;;;;;;;247.30;72.20;;;;;;;-0.06;100.00;101870.13;5027002;28;20278;-40
2023/12/07 07:50:54;;;;;;;241.05;71.30;;;;;;;-0.03;100.00;101874.56;5028072;28;20357;-36
2023/12/07 07:53:20;;;;;;;213.07;64.90;;;;;;;-0.05;100.00;101887.69;5029646;28;20184;-42
2023/12/07 07:55:45;;;;;;;233.77;70.75;;;;;;;-0.05;100.00;101881.53;5024946;28;20203;-36
2023/12/07 07:58:11;;;;;;;304.10;76.15;;;;;;;-0.09;100.00;101887.59;5030189;28;20184;-39
2023/12/07 08:00:37;;;;;;;296.95;75.03;;;;;;;-0.10;100.00;101891.09;5022222;28;20196;-38
2023/12/07 08:03:03;;;;;;;417.42;70.38;;;;;;;-0.16;100.00;101881.28;5030050;28;20627;-39
2023/12/07 08:05:28;;;;;;;236.75;58.15;;;;;;;-0.13;100.00;101896.25;5029220;28;20245;-42
2023/12/07 08:07:54;;;;;;;252.90;59.65;;;;;;;-0.19;100.00;101897.03;5029152;28;20203;-40
2023/12/07 08:10:20;;;;;;;205.50;55.30;;;;;;;-0.08;100.00;101892.00;5029002;28;20204;-38
2023/12/07 08:12:45;;;;;;;326.85;60.58;;;;;;;-0.13;100.00;101909.44;5020947;28;20247;-41
2023/12/07 08:15:11;;;;;;;212.13;54.85;;;;;;;-0.13;100.00;101912.06;5030069;28;20184;-44
2023/12/07 08:17:40;;;;;;;245.40;59.63;;;;;;;-0.17;100.00;101908.50;5023975;28;20180;-39
2023/12/07 08:20:08;;;;;;;257.55;57.53;;;;;;;-0.19;100.00;101915.47;5027874;28;20303;-40
2023/12/07 08:22:34;;;;;;;259.40;60.55;;;;;;;-0.17;100.00;101910.25;5025672;28;20195;-39
2023/12/07 08:25:04;;;;;;;258.83;57.58;;;;;;;-0.18;100.00;101927.78;5010953;28;20241;-35
2023/12/07 08:27:32;;;;;;;218.05;54.05;;;;;;;-0.14;100.00;101921.72;5012133;28;20208;-39
2023/12/07 08:29:58;;;;;;;262.42;57.95;;;;;;;-0.17;100.00;101924.31;5018621;28;20722;-43
2023/12/07 08:32:25;;;;;;;214.60;54.38;;;;;;;-0.11;100.00;101929.72;5029788;28;20207;-43
2023/12/07 08:34:51;;;;;;;238.95;56.53;;;;;;;-0.13;100.00;101931.44;5032246;28;20246;-42
2023/12/07 08:37:17;;;;;;;233.48;56.58;;;;;;;-0.08;100.00;101939.44;5032140;28;20234;-39
2023/12/07 08:39:42;;;;;;;229.25;55.70;;;;;;;-0.09;100.00;101937.63;5023605;28;20754;-40
2023/12/07 08:42:08;;;;;;;223.40;55.47;;;;;;;-0.13;100.00;101949.84;5023576;28;20577;-38
2023/12/07 08:44:33;;;;;;;227.68;53.67;;;;;;;-0.05;100.00;101943.00;5031132;28;20172;-37
2023/12/07 08:46:59;;;;;;;250.32;55.08;;;;;;;-0.09;100.00;101946.44;5027348;28;20184;-39
2023/12/07 08:49:25;;;;;;;187.48;50.17;;;;;;;-0.06;100.00;101948.25;5030579;28;20184;-42
2023/12/07 08:51:52;;;;;;;230.57;54.03;;;;;;;-0.10;100.00;101949.91;5027927;28;20204;-43
2023/12/07 08:54:18;;;;;;;199.00;51.97;;;;;;;-0.09;100.00;101954.34;5029279;28;20195;-40
2023/12/07 08:56:45;;;;;;;221.30;51.83;;;;;;;-0.06;100.00;101959.69;5031990;28;20595;-41
2023/12/07 08:59:10;;;;;;;187.95;47.97;;;;;;;-0.08;100.00;101956.13;5031893;28;20749;-44
2023/12/07 09:01:36;;;;;;;186.70;51.17;;;;;;;-0.02;100.00;101958.03;5030744;28;20203;-44
2023/12/07 09:04:02;;;;;;;214.15;53.83;;;;;;;-0.05;100.00;101958.81;5029414;28;20210;-42
2023/12/07 09:06:27;;;;;;;198.25;49.83;;;;;;;-0.01;100.00;101967.69;5029890;28;20192;-41
2023/12/07 09:08:53;;;;;;;210.82;54.42;;;;;;;-0.07;100.00;101964.91;5029114;28;20271;-42
2023/12/07 09:11:18;;;;;;;219.20;53.55;;;;;;;-0.08;100.00;101961.38;5028459;28;20295;-41
2023/12/07 09:13:44;;;;;;;203.82;51.78;;;;;;;-0.12;100.00;101963.91;5020082;28;20254;-43
2023/12/07 09:16:09;;;;;;;185.60;49.70;;;;;;;-0.10;100.00;101970.13;5020740;28;20278;-44
2023/12/07 09:18:36;;;;;;;195.35;51.65;;;;;;;-0.10;100.00;101957.81;5022988;28;20188;-43
2023/12/07 09:21:02;;;;;;;218.25;52.03;;;;;;;-0.10;100.00;101965.72;5016616;28;20223;-41
2023/12/07 09:23:28;;;;;;;186.65;49.35;;;;;;;-0.10;100.00;101963.09;5023907;28;20228;-41
2023/12/07 09:25:54;;;;;;;198.77;50.60;;;;;;;0.01;100.00;101970.38;5012253;28;20301;-40
2023/12/07 09:28:19;;;;;;;219.82;52.63;;;;;;;0.03;100.00;101966.03;5032997;28;20265;-41
2023/12/07 09:30:45;;;;;;;219.30;53.00;;;;;;;0.10;100.00;101968.81;5031237;28;20207;-41
2023/12/07 09:33:10;;;;;;;168.43;47.40;;;;;;;0.08;100.00;101974.91;5031807;28;20275;-39
2023/12/07 09:35:36;;;;;;;201.13;50.80;;;;;;;0.10;100.00;101976.72;5025750;28;20267;-40
2023/12/07 09:38:02;;;;;;;190.68;48.45;;;;;;;0.12;100.00;101964.47;5028816;28;20184;-42
2023/12/07 09:40:28;;;;;;;212.80;52.78;;;;;;;0.13;100.00;101963.63;5029553;28;20212;-39
2023/12/07 09:42:54;;;;;;;186.75;51.83;;;;;;;0.15;100.00;101966.28;5031073;28;20622;-38
2023/12/07 09:45:20;;;;;;;180.68;47.22;;;;;;;0.23;100.00;101967.34;5015284;28;20191;-42
2023/12/07 09:47:50;;;;;;;175.95;48.25;;;;;;;0.22;100.00;101960.31;5025851;28;20184;-41
2023/12/07 09:50:24;;;;;;;188.27;48.78;;;;;;;0.22;100.00;101967.31;5030778;28;20495;-41
2023/12/07 09:52:56;;;;;;;200.85;52.47;;;;;;;0.09;100.00;101967.06;5031288;28;20274;-39
2023/12/07 09:55:22;;;;;;;217.52;52.70;;;;;;;0.15;100.00;101956.66;5030352;28;20625;-41
2023/12/07 09:57:49;;;;;;;191.23;53.40;;;;;;;0.25;100.00;101960.38;5030422;28;20282;-42
2023/12/07 10:00:15;;;;;;;205.27;52.90;;;;;;;0.29;100.00;101958.72;5030514;28;20218;-42
2023/12/07 10:02:42;;;;;;;210.93;54.42;;;;;;;0.35;100.00;101957.09;5021044;28;20654;-44
2023/12/07 10:05:16;;;;;;;212.10;52.53;;;;;;;0.38;100.00;101954.53;5026127;28;20189;-41
2023/12/07 10:07:43;;;;;;;166.15;47.90;;;;;;;0.51;100.00;101966.22;5026030;28;20192;-38
2023/12/07 10:10:13;;;;;;;172.07;46.80;;;;;;;0.59;100.00;101956.72;5028809;28;20207;-44
2023/12/07 10:12:47;;;;;;;196.52;53.90;;;;;;;0.57;100.00;101955.81;5012808;28;20176;-41
2023/12/07 10:15:15;;;;;;;185.10;52.38;;;;;;;0.55;100.00;101954.88;5029469;28;20494;-43
2023/12/07 10:17:47;;;;;;;198.73;53.42;;;;;;;0.53;100.00;101958.34;5028627;28;20279;-42
2023/12/07 10:20:13;;;;;;;157.35;48.35;;;;;;;0.57;100.00;101950.53;5028224;28;20685;-39
2023/12/07 10:22:39;;;;;;;190.65;52.95;;;;;;;0.54;100.00;101960.13;5030001;28;20184;-39
2023/12/07 10:25:05;;;;;;;175.68;52.42;;;;;;;0.51;100.00;101960.06;5026352;28;20250;-40
2023/12/07 10:27:31;;;;;;;186.50;53.70;;;;;;;0.44;100.00;101961.69;5027706;28;20182;-39
2023/12/07 10:29:59;;;;;;;167.32;49.15;;;;;;;0.59;100.00;101961.09;5028461;28;20208;-39
2023/12/07 10:32:25;;;;;;;166.35;50.95;;;;;;;0.58;100.00;101970.75;5030570;28;20184;-38
2023/12/07 10:34:52;;;;;;;180.82;50.33;;;;;;;0.53;100.00;101966.25;5030445;28;20589;-40
2023/12/07 10:37:17;;;;;;;176.73;52.50;;;;;;;0.44;100.00;101961.69;5027571;28;20188;-42
2023/12/07 10:39:43;;;;;;;155.63;47.50;;;;;;;0.54;100.00;101963.63;5028489;28;20196;-41
2023/12/07 10:42:11;;;;;;;154.23;48.92;;;;;;;0.52;100.00;101970.63;5030273;28;20302;-41
2023/12/07 10:44:42;;;;;;;154.18;46.33;;;;;;;0.58;100.00;101973.41;5012824;28;20180;-40
2023/12/07 10:47:10;;;;;;;158.13;47.63;;;;;;;0.66;100.00;101968.28;5016456;28;20634;-41
2023/12/07 10:49:40;;;;;;;167.55;50.15;;;;;;;0.53;100.00;101968.91;5030587;28;20238;-41